Kemps Landing, Louisiana
Current Conditions -  °F | °C
As of 3:55 PM on Wednesday 28 Jan 2015 (Local Time) from KHEZ Reporting Station
Clear Clear  
Wind Chill: 23°   Ceiling: Unl
Heat Index: 23°   Visibility: 10mi
Dew Point:   Wind: 7mph
Humidity: 25%   Direction: 190°S
Pressure: 30.18"   Gusts: NA
Location:  31.3468°N, 91.6624°W
Report Text: KHEZ 282155Z AUTO 19006KT 10SM CLR 23/02 A3018 RMK AO1
Loading
Personal Weather Stations






























Interactive Weather Map New forecast layout! Learn more

10-Day Weather Forecast

Advertisements
Track Severe Weather on mobile